sensor_id;sensor_type;location;lat;lon;timestamp;P1;durP1;ratioP1;P2;durP2;ratioP2
17917;SDS011;9084;50.956;3.106;2023-03-17T00:00:31;1.80;;;1.52;;
17917;SDS011;9084;50.956;3.106;2023-03-17T00:02:57;3.45;;;2.10;;
17917;SDS011;9084;50.956;3.106;2023-03-17T00:05:29;2.15;;;1.80;;
17917;SDS011;9084;50.956;3.106;2023-03-17T00:07:58;3.33;;;2.28;;
17917;SDS011;9084;50.956;3.106;2023-03-17T00:10:31;2.75;;;2.03;;
17917;SDS011;9084;50.956;3.106;2023-03-17T00:12:56;1.75;;;1.58;;
17917;SDS011;9084;50.956;3.106;2023-03-17T00:15:22;2.10;;;1.75;;
17917;SDS011;9084;50.956;3.106;2023-03-17T00:17:54;2.97;;;2.00;;
17917;SDS011;9084;50.956;3.106;2023-03-17T00:20:24;3.13;;;1.88;;
17917;SDS011;9084;50.956;3.106;2023-03-17T00:23:01;3.00;;;2.00;;
17917;SDS011;9084;50.956;3.106;2023-03-17T00:25:33;2.65;;;2.05;;
17917;SDS011;9084;50.956;3.106;2023-03-17T00:27:59;2.95;;;2.17;;
17917;SDS011;9084;50.956;3.106;2023-03-17T00:30:27;2.30;;;2.10;;
17917;SDS011;9084;50.956;3.106;2023-03-17T00:32:56;2.53;;;2.13;;
17917;SDS011;9084;50.956;3.106;2023-03-17T00:35:23;2.42;;;2.03;;
17917;SDS011;9084;50.956;3.106;2023-03-17T00:37:52;2.15;;;1.95;;
17917;SDS011;9084;50.956;3.106;2023-03-17T00:40:26;3.38;;;1.90;;
17917;SDS011;9084;50.956;3.106;2023-03-17T00:42:57;2.85;;;2.00;;
17917;SDS011;9084;50.956;3.106;2023-03-17T00:45:29;3.13;;;1.95;;
17917;SDS011;9084;50.956;3.106;2023-03-17T00:47:59;2.78;;;2.17;;
17917;SDS011;9084;50.956;3.106;2023-03-17T00:50:26;5.18;;;2.10;;
17917;SDS011;9084;50.956;3.106;2023-03-17T00:52:53;2.50;;;2.20;;
17917;SDS011;9084;50.956;3.106;2023-03-17T00:55:21;2.63;;;2.10;;
17917;SDS011;9084;50.956;3.106;2023-03-17T00:57:50;2.03;;;1.83;;
17917;SDS011;9084;50.956;3.106;2023-03-17T01:00:23;3.38;;;2.42;;
17917;SDS011;9084;50.956;3.106;2023-03-17T01:02:53;3.28;;;2.55;;
17917;SDS011;9084;50.956;3.106;2023-03-17T01:05:21;3.50;;;2.70;;
17917;SDS011;9084;50.956;3.106;2023-03-17T01:07:49;3.60;;;2.22;;
17917;SDS011;9084;50.956;3.106;2023-03-17T01:12:49;2.55;;;2.35;;
17917;SDS011;9084;50.956;3.106;2023-03-17T01:15:20;2.85;;;2.50;;
17917;SDS011;9084;50.956;3.106;2023-03-17T01:17:47;2.10;;;1.90;;
17917;SDS011;9084;50.956;3.106;2023-03-17T01:20:21;2.60;;;2.40;;
17917;SDS011;9084;50.956;3.106;2023-03-17T01:22:48;3.55;;;2.40;;
17917;SDS011;9084;50.956;3.106;2023-03-17T01:25:15;3.20;;;2.67;;
17917;SDS011;9084;50.956;3.106;2023-03-17T01:27:41;2.35;;;2.15;;
17917;SDS011;9084;50.956;3.106;2023-03-17T01:32:44;2.75;;;1.92;;
17917;SDS011;9084;50.956;3.106;2023-03-17T01:35:10;2.75;;;2.13;;
17917;SDS011;9084;50.956;3.106;2023-03-17T01:37:38;3.53;;;2.42;;
17917;SDS011;9084;50.956;3.106;2023-03-17T01:40:05;3.35;;;2.40;;
17917;SDS011;9084;50.956;3.106;2023-03-17T01:42:33;2.35;;;2.15;;
17917;SDS011;9084;50.956;3.106;2023-03-17T01:45:03;2.88;;;2.38;;
17917;SDS011;9084;50.956;3.106;2023-03-17T01:47:54;2.45;;;2.25;;
17917;SDS011;9084;50.956;3.106;2023-03-17T01:50:20;2.40;;;2.15;;
17917;SDS011;9084;50.956;3.106;2023-03-17T01:52:46;3.55;;;2.40;;
17917;SDS011;9084;50.956;3.106;2023-03-17T01:55:13;3.67;;;2.10;;
17917;SDS011;9084;50.956;3.106;2023-03-17T01:57:43;2.72;;;2.53;;
17917;SDS011;9084;50.956;3.106;2023-03-17T02:00:18;2.47;;;2.28;;
17917;SDS011;9084;50.956;3.106;2023-03-17T02:02:46;3.05;;;2.30;;
17917;SDS011;9084;50.956;3.106;2023-03-17T02:05:15;3.00;;;2.53;;
17917;SDS011;9084;50.956;3.106;2023-03-17T02:07:44;3.40;;;2.55;;
17917;SDS011;9084;50.956;3.106;2023-03-17T02:10:12;3.95;;;2.78;;
17917;SDS011;9084;50.956;3.106;2023-03-17T02:12:40;3.38;;;2.40;;
17917;SDS011;9084;50.956;3.106;2023-03-17T02:15:10;2.55;;;2.35;;
17917;SDS011;9084;50.956;3.106;2023-03-17T02:17:41;2.45;;;2.25;;
17917;SDS011;9084;50.956;3.106;2023-03-17T02:20:11;3.80;;;2.33;;
17917;SDS011;9084;50.956;3.106;2023-03-17T02:22:46;3.45;;;2.63;;
17917;SDS011;9084;50.956;3.106;2023-03-17T02:25:19;2.83;;;2.63;;
17917;SDS011;9084;50.956;3.106;2023-03-17T02:27:50;2.65;;;2.30;;
17917;SDS011;9084;50.956;3.106;2023-03-17T02:30:20;3.10;;;2.78;;
17917;SDS011;9084;50.956;3.106;2023-03-17T02:32:50;3.08;;;2.60;;
17917;SDS011;9084;50.956;3.106;2023-03-17T02:35:16;3.78;;;2.75;;
17917;SDS011;9084;50.956;3.106;2023-03-17T02:37:45;3.47;;;3.08;;
17917;SDS011;9084;50.956;3.106;2023-03-17T02:40:12;2.70;;;2.50;;
17917;SDS011;9084;50.956;3.106;2023-03-17T02:42:39;2.55;;;2.35;;
17917;SDS011;9084;50.956;3.106;2023-03-17T02:45:08;3.47;;;2.58;;
17917;SDS011;9084;50.956;3.106;2023-03-17T02:47:36;2.47;;;2.28;;
17917;SDS011;9084;50.956;3.106;2023-03-17T02:50:02;3.22;;;2.88;;
17917;SDS011;9084;50.956;3.106;2023-03-17T02:52:30;4.47;;;2.42;;
17917;SDS011;9084;50.956;3.106;2023-03-17T02:54:55;3.45;;;2.60;;
17917;SDS011;9084;50.956;3.106;2023-03-17T02:57:24;4.43;;;2.53;;
17917;SDS011;9084;50.956;3.106;2023-03-17T02:59:54;3.03;;;2.50;;
17917;SDS011;9084;50.956;3.106;2023-03-17T03:02:20;4.10;;;2.47;;
17917;SDS011;9084;50.956;3.106;2023-03-17T03:04:46;4.43;;;2.60;;
17917;SDS011;9084;50.956;3.106;2023-03-17T03:07:11;2.80;;;2.40;;
17917;SDS011;9084;50.956;3.106;2023-03-17T03:09:37;2.72;;;2.53;;
17917;SDS011;9084;50.956;3.106;2023-03-17T03:12:05;3.33;;;3.03;;
17917;SDS011;9084;50.956;3.106;2023-03-17T03:14:36;2.60;;;2.33;;
17917;SDS011;9084;50.956;3.106;2023-03-17T03:17:04;3.53;;;2.53;;
17917;SDS011;9084;50.956;3.106;2023-03-17T03:19:30;3.00;;;2.70;;
17917;SDS011;9084;50.956;3.106;2023-03-17T03:21:56;4.10;;;2.92;;
17917;SDS011;9084;50.956;3.106;2023-03-17T03:24:21;3.35;;;2.70;;
17917;SDS011;9084;50.956;3.106;2023-03-17T03:26:49;3.08;;;2.28;;
17917;SDS011;9084;50.956;3.106;2023-03-17T03:29:15;3.95;;;2.70;;
17917;SDS011;9084;50.956;3.106;2023-03-17T03:31:41;3.92;;;2.80;;
17917;SDS011;9084;50.956;3.106;2023-03-17T03:34:07;2.83;;;2.33;;
17917;SDS011;9084;50.956;3.106;2023-03-17T03:36:35;3.15;;;2.67;;
17917;SDS011;9084;50.956;3.106;2023-03-17T03:39:03;3.20;;;2.33;;
17917;SDS011;9084;50.956;3.106;2023-03-17T03:41:29;2.67;;;2.38;;
17917;SDS011;9084;50.956;3.106;2023-03-17T03:43:54;3.13;;;2.72;;
17917;SDS011;9084;50.956;3.106;2023-03-17T03:46:21;4.35;;;2.88;;
17917;SDS011;9084;50.956;3.106;2023-03-17T03:48:46;2.97;;;2.20;;
17917;SDS011;9084;50.956;3.106;2023-03-17T03:51:12;3.70;;;2.60;;
17917;SDS011;9084;50.956;3.106;2023-03-17T03:53:38;2.72;;;2.35;;
17917;SDS011;9084;50.956;3.106;2023-03-17T03:56:04;3.10;;;2.80;;
17917;SDS011;9084;50.956;3.106;2023-03-17T03:58:30;3.35;;;2.78;;
17917;SDS011;9084;50.956;3.106;2023-03-17T04:00:55;3.55;;;2.95;;
17917;SDS011;9084;50.956;3.106;2023-03-17T04:03:21;2.78;;;2.47;;
17917;SDS011;9084;50.956;3.106;2023-03-17T04:05:47;2.85;;;2.50;;
17917;SDS011;9084;50.956;3.106;2023-03-17T04:08:12;4.00;;;2.85;;
17917;SDS011;9084;50.956;3.106;2023-03-17T04:10:38;4.38;;;2.50;;
17917;SDS011;9084;50.956;3.106;2023-03-17T04:13:06;2.80;;;2.58;;
17917;SDS011;9084;50.956;3.106;2023-03-17T04:15:32;4.53;;;3.00;;
17917;SDS011;9084;50.956;3.106;2023-03-17T04:17:58;4.30;;;3.00;;
17917;SDS011;9084;50.956;3.106;2023-03-17T04:20:26;3.90;;;3.20;;
17917;SDS011;9084;50.956;3.106;2023-03-17T04:22:55;3.28;;;2.97;;
17917;SDS011;9084;50.956;3.106;2023-03-17T04:25:20;3.67;;;2.67;;
17917;SDS011;9084;50.956;3.106;2023-03-17T04:27:46;3.22;;;2.78;;
17917;SDS011;9084;50.956;3.106;2023-03-17T04:30:12;3.20;;;2.90;;
17917;SDS011;9084;50.956;3.106;2023-03-17T04:32:38;2.78;;;2.53;;
17917;SDS011;9084;50.956;3.106;2023-03-17T04:35:07;3.47;;;2.30;;
17917;SDS011;9084;50.956;3.106;2023-03-17T04:37:36;3.47;;;2.42;;
17917;SDS011;9084;50.956;3.106;2023-03-17T04:40:06;3.47;;;2.78;;
17917;SDS011;9084;50.956;3.106;2023-03-17T04:42:34;4.43;;;3.05;;
17917;SDS011;9084;50.956;3.106;2023-03-17T04:45:03;3.60;;;3.00;;
17917;SDS011;9084;50.956;3.106;2023-03-17T04:47:29;3.00;;;2.70;;
17917;SDS011;9084;50.956;3.106;2023-03-17T04:49:57;3.38;;;2.83;;
17917;SDS011;9084;50.956;3.106;2023-03-17T04:52:23;3.50;;;3.20;;
17917;SDS011;9084;50.956;3.106;2023-03-17T04:54:51;5.45;;;3.28;;
17917;SDS011;9084;50.956;3.106;2023-03-17T04:57:19;3.40;;;2.80;;
17917;SDS011;9084;50.956;3.106;2023-03-17T04:59:46;3.35;;;2.67;;
17917;SDS011;9084;50.956;3.106;2023-03-17T05:02:13;3.70;;;2.80;;
17917;SDS011;9084;50.956;3.106;2023-03-17T05:04:39;3.33;;;2.75;;
17917;SDS011;9084;50.956;3.106;2023-03-17T05:07:08;3.72;;;2.65;;
17917;SDS011;9084;50.956;3.106;2023-03-17T05:09:34;2.92;;;2.72;;
17917;SDS011;9084;50.956;3.106;2023-03-17T05:12:01;3.00;;;2.70;;
17917;SDS011;9084;50.956;3.106;2023-03-17T05:14:26;3.20;;;2.33;;
17917;SDS011;9084;50.956;3.106;2023-03-17T05:16:52;3.95;;;2.42;;
17917;SDS011;9084;50.956;3.106;2023-03-17T05:19:18;3.28;;;2.20;;
17917;SDS011;9084;50.956;3.106;2023-03-17T05:21:48;4.63;;;2.30;;
17917;SDS011;9084;50.956;3.106;2023-03-17T05:24:16;2.60;;;2.33;;
17917;SDS011;9084;50.956;3.106;2023-03-17T05:26:41;4.13;;;2.60;;
17917;SDS011;9084;50.956;3.106;2023-03-17T05:29:08;2.80;;;2.60;;
17917;SDS011;9084;50.956;3.106;2023-03-17T05:31:36;3.45;;;2.83;;
17917;SDS011;9084;50.956;3.106;2023-03-17T05:34:02;2.95;;;2.72;;
17917;SDS011;9084;50.956;3.106;2023-03-17T05:36:30;2.80;;;2.25;;
17917;SDS011;9084;50.956;3.106;2023-03-17T05:38:57;2.70;;;2.20;;
17917;SDS011;9084;50.956;3.106;2023-03-17T05:41:23;3.70;;;2.75;;
17917;SDS011;9084;50.956;3.106;2023-03-17T05:43:53;4.32;;;2.80;;
17917;SDS011;9084;50.956;3.106;2023-03-17T05:46:18;3.08;;;2.10;;
17917;SDS011;9084;50.956;3.106;2023-03-17T05:48:47;3.05;;;2.33;;
17917;SDS011;9084;50.956;3.106;2023-03-17T05:51:13;2.75;;;2.50;;
17917;SDS011;9084;50.956;3.106;2023-03-17T05:53:41;3.10;;;2.40;;
17917;SDS011;9084;50.956;3.106;2023-03-17T05:56:07;3.05;;;2.72;;
17917;SDS011;9084;50.956;3.106;2023-03-17T05:58:33;3.42;;;2.75;;
17917;SDS011;9084;50.956;3.106;2023-03-17T06:00:59;3.10;;;2.70;;
17917;SDS011;9084;50.956;3.106;2023-03-17T06:03:25;3.92;;;2.70;;
17917;SDS011;9084;50.956;3.106;2023-03-17T06:05:56;2.40;;;2.13;;
17917;SDS011;9084;50.956;3.106;2023-03-17T06:08:26;3.92;;;2.67;;
17917;SDS011;9084;50.956;3.106;2023-03-17T06:10:52;2.88;;;2.47;;
17917;SDS011;9084;50.956;3.106;2023-03-17T06:13:20;2.95;;;2.65;;
17917;SDS011;9084;50.956;3.106;2023-03-17T06:15:49;3.20;;;2.70;;
17917;SDS011;9084;50.956;3.106;2023-03-17T06:18:17;5.75;;;2.78;;
17917;SDS011;9084;50.956;3.106;2023-03-17T06:20:45;2.65;;;2.33;;
17917;SDS011;9084;50.956;3.106;2023-03-17T06:23:11;4.15;;;2.80;;
17917;SDS011;9084;50.956;3.106;2023-03-17T06:25:36;2.75;;;2.47;;
17917;SDS011;9084;50.956;3.106;2023-03-17T06:28:02;3.00;;;2.58;;
17917;SDS011;9084;50.956;3.106;2023-03-17T06:30:33;2.72;;;2.08;;
17917;SDS011;9084;50.956;3.106;2023-03-17T06:32:59;3.63;;;2.13;;
17917;SDS011;9084;50.956;3.106;2023-03-17T06:35:26;3.40;;;2.63;;
17917;SDS011;9084;50.956;3.106;2023-03-17T06:37:55;3.72;;;2.33;;
17917;SDS011;9084;50.956;3.106;2023-03-17T06:40:22;4.78;;;2.50;;
17917;SDS011;9084;50.956;3.106;2023-03-17T06:42:48;2.72;;;2.50;;
17917;SDS011;9084;50.956;3.106;2023-03-17T06:45:14;2.95;;;2.65;;
17917;SDS011;9084;50.956;3.106;2023-03-17T06:47:40;2.88;;;2.67;;
17917;SDS011;9084;50.956;3.106;2023-03-17T06:50:06;3.15;;;2.47;;
17917;SDS011;9084;50.956;3.106;2023-03-17T06:52:34;3.80;;;2.70;;
17917;SDS011;9084;50.956;3.106;2023-03-17T06:55:00;4.05;;;3.17;;
17917;SDS011;9084;50.956;3.106;2023-03-17T06:57:26;3.00;;;2.50;;
17917;SDS011;9084;50.956;3.106;2023-03-17T06:59:56;2.80;;;2.45;;
17917;SDS011;9084;50.956;3.106;2023-03-17T07:02:25;2.97;;;2.65;;
17917;SDS011;9084;50.956;3.106;2023-03-17T07:04:50;2.75;;;2.53;;
17917;SDS011;9084;50.956;3.106;2023-03-17T07:07:21;3.17;;;2.33;;
17917;SDS011;9084;50.956;3.106;2023-03-17T07:09:49;4.30;;;2.53;;
17917;SDS011;9084;50.956;3.106;2023-03-17T07:12:16;2.78;;;2.55;;
17917;SDS011;9084;50.956;3.106;2023-03-17T07:14:44;4.68;;;2.95;;
17917;SDS011;9084;50.956;3.106;2023-03-17T07:17:10;4.20;;;2.80;;
17917;SDS011;9084;50.956;3.106;2023-03-17T07:19:40;4.10;;;3.10;;
17917;SDS011;9084;50.956;3.106;2023-03-17T07:22:10;2.67;;;2.47;;
17917;SDS011;9084;50.956;3.106;2023-03-17T07:24:38;3.55;;;3.22;;
17917;SDS011;9084;50.956;3.106;2023-03-17T07:27:08;3.05;;;2.67;;
17917;SDS011;9084;50.956;3.106;2023-03-17T07:29:38;4.43;;;2.95;;
17917;SDS011;9084;50.956;3.106;2023-03-17T07:32:04;5.03;;;3.25;;
17917;SDS011;9084;50.956;3.106;2023-03-17T07:34:32;5.30;;;3.55;;
17917;SDS011;9084;50.956;3.106;2023-03-17T07:36:58;4.25;;;3.50;;
17917;SDS011;9084;50.956;3.106;2023-03-17T07:39:27;4.72;;;2.90;;
17917;SDS011;9084;50.956;3.106;2023-03-17T07:41:52;5.30;;;2.97;;
17917;SDS011;9084;50.956;3.106;2023-03-17T07:44:24;3.85;;;3.40;;
17917;SDS011;9084;50.956;3.106;2023-03-17T07:46:55;3.58;;;3.00;;
17917;SDS011;9084;50.956;3.106;2023-03-17T07:49:21;4.30;;;2.83;;
17917;SDS011;9084;50.956;3.106;2023-03-17T07:51:49;4.15;;;3.25;;
17917;SDS011;9084;50.956;3.106;2023-03-17T07:54:14;4.82;;;3.00;;
17917;SDS011;9084;50.956;3.106;2023-03-17T07:56:42;3.50;;;3.13;;
17917;SDS011;9084;50.956;3.106;2023-03-17T07:59:08;3.28;;;2.97;;
17917;SDS011;9084;50.956;3.106;2023-03-17T08:01:35;4.10;;;3.40;;
17917;SDS011;9084;50.956;3.106;2023-03-17T08:04:01;3.05;;;2.80;;
17917;SDS011;9084;50.956;3.106;2023-03-17T08:06:31;6.53;;;3.80;;
17917;SDS011;9084;50.956;3.106;2023-03-17T08:08:56;4.20;;;3.35;;
17917;SDS011;9084;50.956;3.106;2023-03-17T08:11:29;5.05;;;3.63;;
17917;SDS011;9084;50.956;3.106;2023-03-17T08:13:55;4.68;;;3.38;;
17917;SDS011;9084;50.956;3.106;2023-03-17T08:16:21;5.50;;;3.33;;
17917;SDS011;9084;50.956;3.106;2023-03-17T08:18:46;3.72;;;3.28;;
17917;SDS011;9084;50.956;3.106;2023-03-17T08:21:17;3.25;;;2.95;;
17917;SDS011;9084;50.956;3.106;2023-03-17T08:23:45;4.40;;;2.80;;
17917;SDS011;9084;50.956;3.106;2023-03-17T08:26:11;6.43;;;3.33;;
17917;SDS011;9084;50.956;3.106;2023-03-17T08:28:38;4.30;;;3.15;;
17917;SDS011;9084;50.956;3.106;2023-03-17T08:31:05;4.22;;;3.38;;
17917;SDS011;9084;50.956;3.106;2023-03-17T08:33:36;5.03;;;3.25;;
17917;SDS011;9084;50.956;3.106;2023-03-17T08:36:03;4.70;;;3.55;;
17917;SDS011;9084;50.956;3.106;2023-03-17T08:38:30;5.25;;;3.88;;
17917;SDS011;9084;50.956;3.106;2023-03-17T08:41:02;3.90;;;3.40;;
17917;SDS011;9084;50.956;3.106;2023-03-17T08:43:29;6.22;;;3.67;;
17917;SDS011;9084;50.956;3.106;2023-03-17T08:45:59;4.43;;;3.50;;
17917;SDS011;9084;50.956;3.106;2023-03-17T08:48:33;4.20;;;3.20;;
17917;SDS011;9084;50.956;3.106;2023-03-17T08:51:00;4.43;;;3.00;;
17917;SDS011;9084;50.956;3.106;2023-03-17T08:53:27;5.20;;;3.42;;
17917;SDS011;9084;50.956;3.106;2023-03-17T08:55:54;5.07;;;3.60;;
17917;SDS011;9084;50.956;3.106;2023-03-17T08:58:25;4.05;;;3.47;;
17917;SDS011;9084;50.956;3.106;2023-03-17T09:00:56;3.70;;;3.28;;
17917;SDS011;9084;50.956;3.106;2023-03-17T09:03:25;5.18;;;3.45;;
17917;SDS011;9084;50.956;3.106;2023-03-17T09:05:51;5.05;;;2.95;;
17917;SDS011;9084;50.956;3.106;2023-03-17T09:08:17;4.53;;;3.90;;
17917;SDS011;9084;50.956;3.106;2023-03-17T09:10:43;3.83;;;3.42;;
17917;SDS011;9084;50.956;3.106;2023-03-17T09:13:09;5.10;;;3.70;;
17917;SDS011;9084;50.956;3.106;2023-03-17T09:15:38;7.25;;;3.75;;
17917;SDS011;9084;50.956;3.106;2023-03-17T09:18:06;4.50;;;4.05;;
17917;SDS011;9084;50.956;3.106;2023-03-17T09:20:33;5.20;;;4.03;;
17917;SDS011;9084;50.956;3.106;2023-03-17T09:22:59;3.30;;;3.00;;
17917;SDS011;9084;50.956;3.106;2023-03-17T09:25:29;4.47;;;3.63;;
17917;SDS011;9084;50.956;3.106;2023-03-17T09:27:55;4.57;;;3.40;;
17917;SDS011;9084;50.956;3.106;2023-03-17T09:30:21;4.18;;;3.40;;
17917;SDS011;9084;50.956;3.106;2023-03-17T09:32:50;5.57;;;4.10;;
17917;SDS011;9084;50.956;3.106;2023-03-17T09:35:19;6.20;;;3.50;;
17917;SDS011;9084;50.956;3.106;2023-03-17T09:37:48;4.00;;;3.60;;
17917;SDS011;9084;50.956;3.106;2023-03-17T09:40:18;5.03;;;3.45;;
17917;SDS011;9084;50.956;3.106;2023-03-17T09:45:40;3.78;;;3.20;;
17917;SDS011;9084;50.956;3.106;2023-03-17T09:54:06;3.95;;;3.65;;
17917;SDS011;9084;50.956;3.106;2023-03-17T09:56:32;5.28;;;3.47;;
17917;SDS011;9084;50.956;3.106;2023-03-17T10:01:51;4.72;;;3.15;;
17917;SDS011;9084;50.956;3.106;2023-03-17T10:04:19;3.92;;;3.10;;
17917;SDS011;9084;50.956;3.106;2023-03-17T10:06:45;5.63;;;4.00;;
17917;SDS011;9084;50.956;3.106;2023-03-17T10:09:17;7.03;;;3.70;;
17917;SDS011;9084;50.956;3.106;2023-03-17T10:12:48;4.45;;;3.25;;
17917;SDS011;9084;50.956;3.106;2023-03-17T10:17:31;3.20;;;2.83;;
17917;SDS011;9084;50.956;3.106;2023-03-17T10:20:01;4.75;;;2.97;;
17917;SDS011;9084;50.956;3.106;2023-03-17T10:25:02;4.07;;;3.20;;
17917;SDS011;9084;50.956;3.106;2023-03-17T10:27:37;4.50;;;3.35;;
17917;SDS011;9084;50.956;3.106;2023-03-17T10:30:10;5.10;;;3.00;;
17917;SDS011;9084;50.956;3.106;2023-03-17T10:32:43;4.30;;;2.90;;
17917;SDS011;9084;50.956;3.106;2023-03-17T10:35:12;6.43;;;3.00;;
17917;SDS011;9084;50.956;3.106;2023-03-17T10:37:42;3.30;;;2.75;;
17917;SDS011;9084;50.956;3.106;2023-03-17T10:40:26;4.88;;;3.40;;
17917;SDS011;9084;50.956;3.106;2023-03-17T10:42:59;6.25;;;3.30;;
17917;SDS011;9084;50.956;3.106;2023-03-17T10:45:35;4.88;;;3.10;;
17917;SDS011;9084;50.956;3.106;2023-03-17T10:48:08;3.45;;;3.10;;
17917;SDS011;9084;50.956;3.106;2023-03-17T10:50:38;3.20;;;2.55;;
17917;SDS011;9084;50.956;3.106;2023-03-17T10:53:17;5.78;;;3.28;;
17917;SDS011;9084;50.956;3.106;2023-03-17T10:56:06;3.05;;;2.78;;
17917;SDS011;9084;50.956;3.106;2023-03-17T10:58:42;4.15;;;2.97;;
17917;SDS011;9084;50.956;3.106;2023-03-17T11:04:24;3.78;;;3.20;;
17917;SDS011;9084;50.956;3.106;2023-03-17T11:06:57;3.38;;;3.05;;
17917;SDS011;9084;50.956;3.106;2023-03-17T11:09:25;2.90;;;2.67;;
17917;SDS011;9084;50.956;3.106;2023-03-17T11:12:06;4.38;;;3.35;;
17917;SDS011;9084;50.956;3.106;2023-03-17T11:14:45;3.88;;;3.00;;
17917;SDS011;9084;50.956;3.106;2023-03-17T11:19:53;6.90;;;3.30;;
17917;SDS011;9084;50.956;3.106;2023-03-17T11:22:37;3.80;;;3.03;;
17917;SDS011;9084;50.956;3.106;2023-03-17T11:30:37;3.42;;;2.95;;
17917;SDS011;9084;50.956;3.106;2023-03-17T11:41:35;5.60;;;3.67;;
17917;SDS011;9084;50.956;3.106;2023-03-17T11:49:47;4.32;;;2.70;;
17917;SDS011;9084;50.956;3.106;2023-03-17T11:55:32;4.95;;;3.00;;
17917;SDS011;9084;50.956;3.106;2023-03-17T11:58:05;4.43;;;2.95;;
17917;SDS011;9084;50.956;3.106;2023-03-17T12:00:41;3.63;;;3.13;;
17917;SDS011;9084;50.956;3.106;2023-03-17T12:03:19;5.43;;;2.90;;
17917;SDS011;9084;50.956;3.106;2023-03-17T12:05:54;3.58;;;2.78;;
17917;SDS011;9084;50.956;3.106;2023-03-17T12:08:38;4.40;;;3.00;;
17917;SDS011;9084;50.956;3.106;2023-03-17T12:11:13;3.58;;;2.88;;
17917;SDS011;9084;50.956;3.106;2023-03-17T12:13:56;3.60;;;2.75;;
17917;SDS011;9084;50.956;3.106;2023-03-17T12:21:44;3.53;;;3.15;;
17917;SDS011;9084;50.956;3.106;2023-03-17T12:24:39;5.38;;;3.05;;
17917;SDS011;9084;50.956;3.106;2023-03-17T12:27:15;4.30;;;2.95;;
17917;SDS011;9084;50.956;3.106;2023-03-17T12:29:50;5.10;;;3.00;;
17917;SDS011;9084;50.956;3.106;2023-03-17T12:35:19;3.17;;;2.88;;
17917;SDS011;9084;50.956;3.106;2023-03-17T12:37:47;4.97;;;2.95;;
17917;SDS011;9084;50.956;3.106;2023-03-17T12:40:16;5.45;;;2.85;;
17917;SDS011;9084;50.956;3.106;2023-03-17T12:42:53;4.35;;;3.03;;
17917;SDS011;9084;50.956;3.106;2023-03-17T12:53:31;4.45;;;3.20;;
17917;SDS011;9084;50.956;3.106;2023-03-17T12:58:43;3.80;;;3.17;;
17917;SDS011;9084;50.956;3.106;2023-03-17T13:03:59;4.28;;;2.50;;
17917;SDS011;9084;50.956;3.106;2023-03-17T13:06:32;3.95;;;2.80;;
17917;SDS011;9084;50.956;3.106;2023-03-17T13:09:31;4.55;;;3.10;;
17917;SDS011;9084;50.956;3.106;2023-03-17T13:11:59;4.60;;;3.10;;
17917;SDS011;9084;50.956;3.106;2023-03-17T13:19:55;3.58;;;2.42;;
17917;SDS011;9084;50.956;3.106;2023-03-17T13:27:59;2.15;;;1.92;;
17917;SDS011;9084;50.956;3.106;2023-03-17T13:30:45;5.63;;;2.40;;
17917;SDS011;9084;50.956;3.106;2023-03-17T13:33:32;4.30;;;2.47;;
17917;SDS011;9084;50.956;3.106;2023-03-17T13:39:18;2.83;;;2.17;;
17917;SDS011;9084;50.956;3.106;2023-03-17T13:51:17;6.72;;;2.20;;
17917;SDS011;9084;50.956;3.106;2023-03-17T13:56:48;3.35;;;1.92;;
17917;SDS011;9084;50.956;3.106;2023-03-17T13:59:35;6.63;;;2.30;;
17917;SDS011;9084;50.956;3.106;2023-03-17T14:02:20;4.47;;;2.30;;
17917;SDS011;9084;50.956;3.106;2023-03-17T14:05:35;2.58;;;1.90;;
17917;SDS011;9084;50.956;3.106;2023-03-17T14:07:56;5.00;;;2.30;;
17917;SDS011;9084;50.956;3.106;2023-03-17T14:10:28;5.15;;;2.22;;
17917;SDS011;9084;50.956;3.106;2023-03-17T14:15:35;5.80;;;2.45;;
17917;SDS011;9084;50.956;3.106;2023-03-17T14:18:15;4.13;;;2.05;;
17917;SDS011;9084;50.956;3.106;2023-03-17T14:20:53;4.32;;;2.53;;
17917;SDS011;9084;50.956;3.106;2023-03-17T14:23:23;3.92;;;2.10;;
17917;SDS011;9084;50.956;3.106;2023-03-17T14:25:49;4.32;;;2.92;;
17917;SDS011;9084;50.956;3.106;2023-03-17T14:28:21;5.35;;;2.97;;
17917;SDS011;9084;50.956;3.106;2023-03-17T14:30:58;2.72;;;2.50;;
17917;SDS011;9084;50.956;3.106;2023-03-17T14:33:30;6.47;;;3.22;;
17917;SDS011;9084;50.956;3.106;2023-03-17T14:36:08;6.63;;;3.03;;
17917;SDS011;9084;50.956;3.106;2023-03-17T14:38:36;4.68;;;3.00;;
17917;SDS011;9084;50.956;3.106;2023-03-17T14:41:15;4.82;;;3.03;;
17917;SDS011;9084;50.956;3.106;2023-03-17T14:43:44;5.15;;;2.75;;
17917;SDS011;9084;50.956;3.106;2023-03-17T14:48:50;6.90;;;3.05;;
17917;SDS011;9084;50.956;3.106;2023-03-17T14:51:34;3.85;;;3.00;;
17917;SDS011;9084;50.956;3.106;2023-03-17T14:54:02;7.28;;;3.33;;
17917;SDS011;9084;50.956;3.106;2023-03-17T14:56:35;4.68;;;3.00;;
17917;SDS011;9084;50.956;3.106;2023-03-17T14:59:06;4.80;;;2.80;;
17917;SDS011;9084;50.956;3.106;2023-03-17T15:01:43;7.15;;;3.00;;
17917;SDS011;9084;50.956;3.106;2023-03-17T15:04:15;5.25;;;3.20;;
17917;SDS011;9084;50.956;3.106;2023-03-17T15:06:50;4.93;;;2.90;;
17917;SDS011;9084;50.956;3.106;2023-03-17T15:12:05;4.43;;;2.17;;
17917;SDS011;9084;50.956;3.106;2023-03-17T15:14:38;3.95;;;2.45;;
17917;SDS011;9084;50.956;3.106;2023-03-17T15:17:05;4.50;;;2.10;;
17917;SDS011;9084;50.956;3.106;2023-03-17T15:19:49;3.65;;;1.98;;
17917;SDS011;9084;50.956;3.106;2023-03-17T15:24:49;7.20;;;2.70;;
17917;SDS011;9084;50.956;3.106;2023-03-17T15:27:35;4.63;;;3.00;;
17917;SDS011;9084;50.956;3.106;2023-03-17T15:30:01;6.70;;;2.78;;
17917;SDS011;9084;50.956;3.106;2023-03-17T15:32:27;5.60;;;2.63;;
17917;SDS011;9084;50.956;3.106;2023-03-17T15:34:55;2.80;;;2.22;;
17917;SDS011;9084;50.956;3.106;2023-03-17T15:37:25;3.65;;;1.92;;
17917;SDS011;9084;50.956;3.106;2023-03-17T15:39:55;5.30;;;2.33;;
17917;SDS011;9084;50.956;3.106;2023-03-17T15:42:28;3.90;;;2.05;;
17917;SDS011;9084;50.956;3.106;2023-03-17T15:44:56;4.95;;;2.08;;
17917;SDS011;9084;50.956;3.106;2023-03-17T15:47:25;3.35;;;2.15;;
17917;SDS011;9084;50.956;3.106;2023-03-17T15:49:53;3.35;;;1.95;;
17917;SDS011;9084;50.956;3.106;2023-03-17T15:52:24;4.28;;;1.80;;
17917;SDS011;9084;50.956;3.106;2023-03-17T15:54:54;6.40;;;2.00;;
17917;SDS011;9084;50.956;3.106;2023-03-17T15:57:22;4.05;;;2.05;;
17917;SDS011;9084;50.956;3.106;2023-03-17T15:59:49;4.90;;;2.20;;
17917;SDS011;9084;50.956;3.106;2023-03-17T16:02:29;4.50;;;2.15;;
17917;SDS011;9084;50.956;3.106;2023-03-17T16:05:00;4.25;;;1.90;;
17917;SDS011;9084;50.956;3.106;2023-03-17T16:07:31;5.43;;;1.75;;
17917;SDS011;9084;50.956;3.106;2023-03-17T16:09:57;4.72;;;1.98;;
17917;SDS011;9084;50.956;3.106;2023-03-17T16:12:23;3.30;;;1.70;;
17917;SDS011;9084;50.956;3.106;2023-03-17T16:14:49;2.70;;;1.75;;
17917;SDS011;9084;50.956;3.106;2023-03-17T16:17:17;5.10;;;2.08;;
17917;SDS011;9084;50.956;3.106;2023-03-17T16:19:50;6.45;;;2.53;;
17917;SDS011;9084;50.956;3.106;2023-03-17T16:22:36;3.80;;;2.30;;
17917;SDS011;9084;50.956;3.106;2023-03-17T16:25:19;3.67;;;2.10;;
17917;SDS011;9084;50.956;3.106;2023-03-17T16:27:48;3.85;;;2.22;;
17917;SDS011;9084;50.956;3.106;2023-03-17T16:30:18;3.70;;;2.42;;
17917;SDS011;9084;50.956;3.106;2023-03-17T16:32:48;4.57;;;2.30;;
17917;SDS011;9084;50.956;3.106;2023-03-17T16:35:15;2.72;;;2.10;;
17917;SDS011;9084;50.956;3.106;2023-03-17T16:37:46;4.07;;;2.40;;
17917;SDS011;9084;50.956;3.106;2023-03-17T16:42:42;3.15;;;2.40;;
17917;SDS011;9084;50.956;3.106;2023-03-17T16:45:27;4.93;;;2.85;;
17917;SDS011;9084;50.956;3.106;2023-03-17T16:47:57;5.88;;;2.58;;
17917;SDS011;9084;50.956;3.106;2023-03-17T16:50:25;6.25;;;2.28;;
17917;SDS011;9084;50.956;3.106;2023-03-17T16:52:57;2.72;;;2.00;;
17917;SDS011;9084;50.956;3.106;2023-03-17T16:55:24;4.32;;;2.70;;
17917;SDS011;9084;50.956;3.106;2023-03-17T16:57:52;3.97;;;2.33;;
17917;SDS011;9084;50.956;3.106;2023-03-17T17:00:24;3.40;;;2.17;;
17917;SDS011;9084;50.956;3.106;2023-03-17T17:02:56;4.40;;;2.25;;
17917;SDS011;9084;50.956;3.106;2023-03-17T17:05:27;5.22;;;2.58;;
17917;SDS011;9084;50.956;3.106;2023-03-17T17:07:54;2.90;;;2.42;;